Terminal Aerodrome Forecast
Issued by NWS

Home | Current Version | Previous Version | Text Only | Print | Product List | Glossary On
Versions: 1 2 3 4 5 6 7 8 9 10 11 12 13 14 15 16 17 18 19
884
FTAK31 PAJN 290521
TAFASI
TAF
PASI 290521Z 2906/3006 12006KT P6SM -SHRA SCT015 BKN025 OVC035
     FM292100 22007KT P6SM -SHRA SCT015 BKN025 OVC040
     FM300000 23006KT 6SM -SHRA BKN015 OVC025=

USA.gov is the U.S. government's official web portal to all federal, state and local government web resources and services.